Es sind jetzt 12 Stunden. Offenbar wurde Reboot abgeschlossen - aber jetzt neue Fehler: we encounter problems with XFS failures

Also immer noch offline.

Mühsam!

Show thread

@xpac Feuerwehr nicht für alle Kategorien verfügbar? g@silste@chaos.social @sophie @fly_it

@silste Oder macht ein Holding, jetzt auf 28'000 Fuss

@silste Ein bisschen hoch zum Landen mit 30'000 Fuss.

@silste
Im Metar ist nichts zu sehen

LIRP 291745Z 26008KT 9999 FEW025 26/21 Q1012 NOSIG

In den Arrival info steht auch nichts:

pisa-airport.com/en/

@vilbi Moment, warum weiss Kachelmann wo du wohnst und warum kennt er deine Email-Adresse?

Sehr verwirrt....

@kranfahrer

Nun sind es 9 Stunden - langsam beginnt es doch zu nerven...

Show thread

"Mein" Server noch immer auf der roten Liste - nach 5 Stunden...

is.uberspace.online/

Info: Der Server meiner Pleroma-Instanz mit meinem Account @Hiker ist schon wieder abgestürzt - Stromausfall.

@MisterB Oh, ich sehe das jetzt erst - du hast es an meinen alten Account gesendet ;-)

Aktuell wäre @Hiker

Show older
Mastodon

The social network of the future: No ads, no corporate surveillance, ethical design, and decentralization! Own your data with Mastodon!